KPIA/PIA METAR and TAF weather

Enter ICAO airport designator
Station Type Date Time Source
KPIA METAR 2024/02/26 17:54 UTC NOAA

KPIA 261754Z 18011KT 10SM CLR 19/03 A2972 RMK AO2 SLP063 T01890028 10189 20006 58025


Station Type Date Time Source
KPIA Decoded METAR 2024/02/26 17:54 UTC NOAA

GREATER PEORIA REGIONAL AIRPORT , IL, United States (KPIA) 40-40N 89-41W 205M
Feb 26, 2024 - 12:54 PM EST / 2024.02.26 1754 UTC
Wind: from the S (180 degrees) at 13 MPH (11 KT):0
Visibility: 10 mile(s):0
Sky conditions: clear
Temperature: 66.0 F (18.9 C)
Dew Point: 37.0 F (2.8 C)
Relative Humidity: 34%
Pressure (altimeter): 29.72 in. Hg (1006 hPa)
Pressure tendency: 0.07 inches (2.5 hPa) lower than three hours ago
ob: KPIA 261754Z 18011KT 10SM CLR 19/03 A2972 RMK AO2 SLP063 T01890028 10189 20006 58025
cycle: 18

Station Type Date Time Source
KPIA TAF 2024/02/26 18:30 UTC NOAA